Sim-Planet VA

Sim-Planet Nouvel Horizon. By: Anthony Pay
Since 2020.




 METAR ET TAF INFORMATION
METAR FOR LPMA
ADDS - METARS form results

(1654 UTC 17 May 2021)
Data provider http://aviationweather.gov/metar/data/
 
METAR text: LPMA 171630Z 04015KT 350V060 9999 FEW015 23/14 Q1022
Conditions at: LPMA (FUNCHAL/MADEIRA , PT) observed 1630 UTC 17 May 2021
Temperature: 23.0°C (73°F)
Dewpoint: 14.0°C (57°F) [RH = 57%]
Pressure (altimeter): 30.18 inches Hg (1022.0 mb)
Winds: from the NE (40 degrees) at 17 MPH (15 knots; 7.7 m/s)
Visibility: 6 or more miles (10+ km)
Ceiling: at least 12,000 feet AGL
Clouds: few clouds at 1500 feet AGL
Weather: no significant weather observed at this time

METAR text: LPMA 171600Z 03016KT 360V060 9999 FEW015 23/14 Q1022
Conditions at: LPMA (FUNCHAL/MADEIRA , PT) observed 1600 UTC 17 May 2021
Temperature: 23.0°C (73°F)
Dewpoint: 14.0°C (57°F) [RH = 57%]
Pressure (altimeter): 30.18 inches Hg (1022.0 mb)
Winds: from the NNE (30 degrees) at 18 MPH (16 knots; 8.2 m/s)
Visibility: 6 or more miles (10+ km)
Ceiling: at least 12,000 feet AGL
Clouds: few clouds at 1500 feet AGL
Weather: no significant weather observed at this time

Forecast for: LPMA (FUNCHAL/MADEIRA , PT)
Text: TAF LPMA 171100Z 1712/1812 02018KT 9999 SCT015
Forecast period: 1200 UTC 17 May 2021 to 1200 UTC 18 May 2021
Forecast type: FROM: standard forecast or significant change
Winds: from the NNE (20 degrees) at 21 MPH (18 knots; 9.3 m/s)
Visibility: 6 or more miles (10+ km)
Ceiling: at least 12,000 feet AGL
Clouds: scattered clouds at 1500 feet AGL
Weather: no significant weather forecast for this period
Text: TEMPO 1712/1812 02020G32KT
Forecast period: 1200 UTC 17 May 2021 to 1200 UTC 18 May 2021
Forecast type: TEMPORARY: The following changes expected for less than half the time period
Winds: from the NNE (20 degrees) at 23 MPH (20 knots; 10.3 m/s)
gusting to 37 MPH (32 knots; 16.5 m/s)
Visibility: missing
Ceiling: unknown
Clouds: missing
Weather: no significant weather forecast for this period

 AÉROPORT DE AÉROPORT

 INFORMATIONS DE PISTE
Piste 05 Longueur de la piste 9110 ft Largeur de la piste 148 ft
Élévation de la piste 147 ft Seuil de la piste déplacés 480 ft Runway heading 45
Piste 23 Longueur de la piste 9110 ft Largeur de la piste 148 ft
Élévation de la piste 192 ft Seuil de la piste déplacés 490 ft Runway heading 225

 AÉROPORT FRÉQUENCES
Type APP Nom APP Féquence 119.2 MHZ
Type TWR Nom TWR Féquence 118.35 MHZ

 SIDA DE NAVIGATION
Type VOR-DME Nom Madeira Féquence 112200 KHZ
Type NDB Nom Madeira Féquence 318 KHZ